首页
METAR-TAF:

METAR-TAF

机场 :

雅西, 罗马尼亚

纬度: 47-10N, 经度: 027-38E, 海拔: 102米

当前天气观测

该预报发布于36分钟前的08:30 UTC
风速6节,风向西,在西南西北之间变化
温度 28°C
湿度 51%
气压 1014 hPa
能见度10公里或以上
1500米以下无云,无积雨云

METAR: LRIA 270830Z 27006KT 230V310 CAVOK 28/17 Q1014

时间: 12:06 (09:06 UTC)

预报

该预报发布于1小时和6分钟前的08:00 UTC
预报有效从27日的 09点(UTC)到 27日的 18点(UTC)
风速10节,风向西转西南
能见度10公里或以上
1500米以下无云,无积雨云
成为
从 27日的 09点(UTC)到 27日的 11点(UTC)
散云层高于4500英尺, 积雨云.
短暂存在
从 27日的 11点(UTC)到 27日的 15点(UTC)
风速25节,风向北转西北,有时为40节阵风
能見度: 3000
散云层高于1000英尺
多云层高于3500英尺, 积雨云.
飑, 雷暴, 雨
几率 30%
从 27日的 11点(UTC)到 27日的 14点(UTC)
能見度: 0800
雷暴, 大雨, 冰雹
短暂存在
从 27日的 15点(UTC)到 27日的 18点(UTC)
能見度: 5000
雷暴, 雨

TAF: LRIA 270800Z 2709/2718 25010KT CAVOK BECMG 2709/2711 SCT045CB TEMPO 2711/2715 33025G40KT 3000 SQ TSRA SCT010 BKN035CB PROB30 2711/2714 0800 +TSRAGR TEMPO 2715/2718 5000 TSRA

超过4000个机场的气象观测和天气预报(METAR&TAF报告)。

可查询的气象台以黄色和红色小点在地图上表示。

将鼠标移到小点上方,可查看气象台名称。

然后点击查看天气观测和预报。

如需切换地图:点击带黑十字的绿色按钮放大地图;点击带横线的绿色按钮缩小地图;或者点击绿色箭头查看邻近地区的地图。


METAR-TAF: